KBUR/BUR METAR and TAF weather

Enter ICAO airport designator
Station Type Date Time Source
KBUR METAR 2019/04/18 20:53 UTC NOAA

KBUR 182053Z 16009KT 10SM CLR 31/03 A3005 RMK AO2 SLP164 T03110028 58017 $


Station Type Date Time Source
KBUR Decoded METAR 2019/04/18 20:53 UTC NOAA

BURBANK-GLENDALE-PASADENA, CA, United States (KBUR) 34-12N 118-22W 217M
Apr 18, 2019 - 04:53 PM EDT / 2019.04.18 2053 UTC
Wind: from the SSE (160 degrees) at 10 MPH (9 KT):0
Visibility: 10 mile(s):0
Sky conditions: clear
Temperature: 88.0 F (31.1 C)
Dew Point: 37.0 F (2.8 C)
Relative Humidity: 16%
Pressure (altimeter): 30.05 in. Hg (1017 hPa)
Pressure tendency: 0.05 inches (1.7 hPa) lower than three hours ago
ob: KBUR 182053Z 16009KT 10SM CLR 31/03 A3005 RMK AO2 SLP164 T03110028 58017
cycle: 21

Station Type Date Time Source
KBUR TAF 2019/04/18 18:22 UTC NOAA

TAF KBUR 181720Z 1818/1918 VRB03KT P6SM SCT250
FM182000 18010KT P6SM SCT250
FM190200 VRB03KT P6SM SCT250

Example: see airport list